Le Grand, California
Current Conditions -  °F | °C
As of 4:53 PM on Sunday 28 Dec 2014 (Local Time) from KMCE Reporting Station
Clear Clear  
Wind Chill: 11°   Ceiling: Unl
Heat Index: 11°   Visibility: 7mi
Dew Point:   Wind: 3mph
Humidity: 63%   Direction: 250°WSW
Pressure: 30.24"   Gusts: NA
Location:  37.23°N, 120.25°W
Report Text: KMCE 290053Z AUTO 25003KT 7SM CLR 11/04 A3024 RMK AO2 SLP238 T01060039
Loading
Personal Weather Stations






























Interactive Weather Map New forecast layout! Learn more

10-Day Weather Forecast

Advertisements
Track Severe Weather on mobile